Flight Track Log - Related Links

Times and Time Zones

All times are in EDT time to prevent confusion due to time zone crossing. See the GJS3707 flight status page for this flight to view local times or setup timezone preferences in your user account.

Time Position Orientation Groundspeed Altitude Reporting Facility
EDT Latitude Longitude Course Direction KTS MPH feet Rate Location/Type
Sun 08:12:04 AM 42.2314 -83.3342 285° West 157 181 1,300  Level Cleveland Center
Sun 08:12:39 AM 42.2567 -83.3214 21° North 163 188 2,400 2,211 Climbing Cleveland Center
Sun 08:13:39 AM 42.3003 -83.3231 358° North 184 212 4,800 2,400 Climbing Cleveland Center
Sun 08:14:39 AM 42.3472 -83.3703 323° Northwest 184 212 7,200 2,700 Climbing Cleveland Center
Sun 08:15:00 AM 42.2899 -83.6827 285° West  Level FlightAware Approximate
Sun 08:15:39 AM 42.3614 -83.4719 281° West 184 212 10,200  Level Cleveland Center
Sun 08:16:00 AM 42.3128 -83.7652 298° West  Level FlightAware Approximate
Sun 08:16:39 AM 42.3692 -83.5764 276° West 262 302 13,100  Level Cleveland Center
Sun 08:17:00 AM 42.3392 -83.8458 285° West  Level FlightAware Approximate
Sun 08:17:39 AM 42.3786 -83.6864 277° West 284 327 15,500  Level Cleveland Center
Sun 08:18:39 AM 42.3883 -83.7936 277° West 296 341 17,900 2,250 Climbing Cleveland Center
Sun 08:19:39 AM 42.3978 -83.9039 277° West 296 341 20,000 2,000 Climbing Cleveland Center
Sun 08:20:39 AM 42.4089 -84.0228 277° West 296 341 21,900 656 Climbing Cleveland Center
Sun 08:22:42 AM 42.4303 -84.2658 277° West 325 374 22,000 33 Climbing Chicago Center
Sun 08:23:43 AM 42.4331 -84.3881 272° West 326 375 22,000  Level Chicago Center
Sun 08:24:44 AM 42.4361 -84.5097 272° West 325 374 22,000  Level Chicago Center
Sun 08:25:44 AM 42.4400 -84.6306 273° West 322 371 22,000  Level Chicago Center
Sun 08:26:45 AM 42.4425 -84.7531 272° West 325 374 22,000  Level Chicago Center
Sun 08:27:46 AM 42.4453 -84.8833 272° West 340 391 22,000  Level Chicago Center
Sun 08:28:47 AM 42.4489 -85.0539 272° West 371 427 22,000 -248 Level Chicago Center
Sun 08:29:47 AM 42.4528 -85.1936 272° West 374 430 21,500 -496 Descending Chicago Center
Sun 08:30:48 AM 42.4547 -85.3308 271° West 368 423 21,000 -492 Descending Chicago Center
Sun 08:31:49 AM 42.4564 -85.4672 271° West 363 418 20,500 -492 Descending Chicago Center
Sun 08:32:50 AM 42.4594 -85.6042 272° West 362 417 20,000 -248 Descending Chicago Center
Sun 08:33:50 AM 42.4614 -85.7467 271° West 376 433 20,000  Level Chicago Center
Sun 08:34:51 AM 42.4628 -85.8908 271° West 382 440 20,000  Level Chicago Center
Sun 08:35:52 AM 42.4639 -86.0350 271° West 382 440 20,000  Level Chicago Center
Sun 08:36:53 AM 42.4594 -86.1792 268° West 383 441 20,000  Level Chicago Center
Sun 08:37:53 AM 42.4522 -86.3231 266° West 382 440 20,000 -347 Level Chicago Center
Sun 08:38:54 AM 42.4447 -86.4664 266° West 380 437 19,300 -1,131 Descending Chicago Center
Sun 08:39:55 AM 42.4372 -86.6111 266° West 384 442 17,700 -1,672 Descending Chicago Center
Sun 08:40:56 AM 42.4311 -86.7478 267° West 368 423 15,900 -1,686 Descending Chicago Center
Sun 08:41:56 AM 42.4250 -86.8772 266° West 349 402 14,300 -1,537 Descending Chicago Center
Sun 08:42:57 AM 42.4172 -87.0050 265° West 343 395 12,800 -1,525 Descending Chicago Center
Sun 08:43:58 AM 42.4083 -87.1311 265° West 337 388 11,200 -1,388 Descending Chicago Center
Sun 08:44:58 AM 42.4008 -87.2586 265° West 341 392 10,000 -595 Descending Chicago Center
Sun 08:45:59 AM 42.3803 -87.3819 257° West 342 394 10,000  Level Chicago Center
Sun 08:47:00 AM 42.3275 -87.4931 237° Southwest 348 400 10,000 -246 Level Chicago Center
Sun 08:48:01 AM 42.2664 -87.5700 223° Southwest 306 352 9,500 -1,190 Descending Chicago Center
Sun 08:49:01 AM 42.2133 -87.6381 224° Southwest 271 312 7,600 -1,240 Descending Chicago Center
Sun 08:50:02 AM 42.1831 -87.7081 240° Southwest 228 262 7,000 -295 Descending Chicago Center
Sun 08:51:03 AM 42.1794 -87.7806 266° West 198 228 7,000 -99 Level Chicago Center
Sun 08:52:03 AM 42.1797 -87.8686 270° West 200 230 6,800 -645 Descending Chicago Center
Sun 08:53:04 AM 42.1947 -87.9408 286° West 202 232 5,700 -934 Descending Chicago Center
Sun 08:54:05 AM 42.2081 -88.0144 284° West 206 237 4,900 -942 Descending Chicago Center
Sun 08:55:05 AM 42.1742 -88.0650 228° Southwest 186 214 3,800 -992 Descending Chicago Center
Sun 08:56:06 AM 42.1331 -88.0978 211° Southwest 184 212 2,900 -600 Descending Chicago Center
Sun 08:56:45 AM 42.1000 -88.0667 145° Southeast 159 183 2,800 -240 Descending Chicago TRACON
Sun 08:57:46 AM 42.0667 -88.0333 143° Southeast 166 191 2,500 -295 Descending Chicago TRACON

Login

Don't have an account? Register now (free) for customized features, flight alerts, and more!